Time;durP1;ratioP1;P1;durP2;ratioP2;P2;SDS_P1;SDS_P2;PMS_P1;PMS_P2;Temp;Humidity;BMP_temperature;BMP_pressure;BME280_temperature;BME280_humidity;BME280_pressure;Samples;Min_cycle;Max_cycle;Signal;HPM_P1;HPM_P2
2021/08/31 00:01:45;;;;;;;52.40;29.25;;;;;;;-145.01;100.00;64805.59;4993099;28;20038;-64
2021/08/31 00:04:10;;;;;;;52.28;27.83;;;;;;;-145.01;100.00;64805.59;4993441;28;20026;-64
2021/08/31 00:06:35;;;;;;;61.45;31.52;;;;;;;-145.01;100.00;64805.59;4991739;28;20050;-64
2021/08/31 00:09:01;;;;;;;56.75;29.63;;;;;;;-145.01;100.00;64805.59;4991950;28;20027;-65
2021/08/31 00:11:26;;;;;;;56.90;29.75;;;;;;;-145.01;100.00;64805.59;4993101;28;20043;-64
2021/08/31 00:13:52;;;;;;;53.33;28.20;;;;;;;-145.01;100.00;64805.59;4993376;28;20030;-64
2021/08/31 00:16:17;;;;;;;46.03;26.90;;;;;;;-145.01;100.00;64805.59;4991312;28;20042;-64
2021/08/31 00:18:43;;;;;;;55.33;30.02;;;;;;;-145.01;100.00;64805.59;4991999;28;20309;-65
2021/08/31 00:21:09;;;;;;;50.33;29.02;;;;;;;-145.01;100.00;64805.59;4992778;28;20113;-64
2021/08/31 00:23:35;;;;;;;56.17;29.55;;;;;;;-145.01;100.00;64805.59;4993279;28;20105;-65
2021/08/31 00:26:00;;;;;;;56.60;29.77;;;;;;;-145.01;100.00;64805.59;4992848;28;20090;-64
2021/08/31 00:28:25;;;;;;;55.10;30.73;;;;;;;-145.01;100.00;64805.59;4993197;28;20037;-64
2021/08/31 00:30:51;;;;;;;55.17;29.08;;;;;;;-145.01;100.00;64805.59;4992950;28;20030;-64
2021/08/31 00:33:16;;;;;;;54.70;29.83;;;;;;;-145.01;100.00;64805.59;4993419;28;20472;-65
2021/08/31 00:35:42;;;;;;;59.35;30.10;;;;;;;-145.01;100.00;64805.59;4991460;28;20401;-65
2021/08/31 00:38:07;;;;;;;63.20;30.50;;;;;;;-145.01;100.00;64805.59;4993257;28;20034;-64
2021/08/31 00:40:32;;;;;;;63.70;30.55;;;;;;;-145.01;100.00;64805.59;4992851;28;20471;-64
2021/08/31 00:42:58;;;;;;;62.30;29.85;;;;;;;-145.01;100.00;64805.59;4991321;28;20457;-65
2021/08/31 00:45:24;;;;;;;56.50;30.30;;;;;;;-145.01;100.00;64805.59;4991517;28;20034;-64
2021/08/31 00:47:49;;;;;;;56.13;31.75;;;;;;;-145.01;100.00;64805.59;4993054;28;20022;-64
2021/08/31 00:50:16;;;;;;;56.78;28.83;;;;;;;-145.01;100.00;64805.59;4992918;28;20027;-65
2021/08/31 00:52:42;;;;;;;61.67;31.75;;;;;;;-145.01;100.00;64805.59;4991737;28;20469;-64
2021/08/31 00:55:08;;;;;;;60.88;31.60;;;;;;;-145.01;100.00;64805.59;4992674;28;20041;-65
2021/08/31 00:57:34;;;;;;;65.15;32.17;;;;;;;-145.01;100.00;64805.59;4991767;28;20077;-65
2021/08/31 01:00:00;;;;;;;61.10;31.88;;;;;;;-145.01;100.00;64805.59;4975588;28;20062;-65
2021/08/31 01:02:25;;;;;;;72.25;35.55;;;;;;;-145.01;100.00;64805.59;4992539;28;20116;-64
2021/08/31 01:04:51;;;;;;;67.43;34.78;;;;;;;-145.01;100.00;64805.59;4992805;28;20030;-64
2021/08/31 01:07:16;;;;;;;68.47;34.92;;;;;;;-145.01;100.00;64805.59;4992268;28;20073;-65
2021/08/31 01:09:42;;;;;;;76.05;35.13;;;;;;;-145.01;100.00;64805.59;4991323;28;20050;-64
2021/08/31 01:12:08;;;;;;;71.00;34.83;;;;;;;-145.01;100.00;64805.59;4992233;28;20170;-64
2021/08/31 01:14:33;;;;;;;67.70;34.42;;;;;;;-145.01;100.00;64805.59;4990909;28;20030;-64
2021/08/31 01:16:58;;;;;;;67.03;31.65;;;;;;;-145.01;100.00;64805.59;4990946;28;20047;-65
2021/08/31 01:19:31;;;;;;;67.20;34.17;;;;;;;-145.01;100.00;64805.59;4992578;28;20425;-64
2021/08/31 01:22:07;;;;;;;71.90;34.20;;;;;;;-145.01;100.00;64805.59;4994222;28;20039;-64
2021/08/31 01:24:33;;;;;;;69.95;33.67;;;;;;;-145.01;100.00;64805.59;4996391;28;20022;-65
2021/08/31 01:26:59;;;;;;;74.90;35.15;;;;;;;-145.01;100.00;64805.59;4995896;28;20045;-65
2021/08/31 01:29:26;;;;;;;68.28;32.45;;;;;;;-145.01;100.00;64805.59;4996380;28;20027;-65
2021/08/31 01:31:52;;;;;;;83.43;35.38;;;;;;;-145.01;100.00;64805.59;4995812;28;20510;-64
2021/08/31 01:34:18;;;;;;;76.22;36.90;;;;;;;-145.01;100.00;64805.59;4996352;28;20141;-64
2021/08/31 01:36:43;;;;;;;73.57;34.45;;;;;;;-145.01;100.00;64805.59;4995702;28;20477;-65
2021/08/31 01:39:09;;;;;;;78.78;36.45;;;;;;;-145.01;100.00;64805.59;4996119;28;20493;-64
2021/08/31 01:41:34;;;;;;;69.85;35.70;;;;;;;-145.01;100.00;64805.59;4995752;28;20034;-64
2021/08/31 01:44:00;;;;;;;65.07;32.45;;;;;;;-145.01;100.00;64805.59;4996222;28;20062;-65
2021/08/31 01:46:25;;;;;;;72.90;37.55;;;;;;;-145.01;100.00;64805.59;4995772;28;20058;-65
2021/08/31 01:48:51;;;;;;;67.28;33.33;;;;;;;-145.01;100.00;64805.59;4994758;28;20014;-65
2021/08/31 01:51:18;;;;;;;66.63;33.72;;;;;;;-145.01;100.00;64805.59;4995625;28;20038;-64
2021/08/31 01:53:44;;;;;;;62.00;33.22;;;;;;;-145.01;100.00;64805.59;4996012;28;20018;-65
2021/08/31 01:56:09;;;;;;;60.85;32.05;;;;;;;-145.01;100.00;64805.59;4994346;28;20038;-64
2021/08/31 01:58:34;;;;;;;61.63;31.13;;;;;;;-145.01;100.00;64805.59;4994460;28;20488;-64
2021/08/31 02:01:00;;;;;;;64.85;32.65;;;;;;;-145.01;100.00;64805.59;4993968;28;20365;-64
2021/08/31 02:03:25;;;;;;;69.57;33.42;;;;;;;-145.01;100.00;64805.59;4995770;28;20030;-64
2021/08/31 02:05:51;;;;;;;61.05;33.55;;;;;;;-145.01;100.00;64805.59;4993899;28;20030;-64
2021/08/31 02:08:16;;;;;;;61.42;31.70;;;;;;;-145.01;100.00;64805.59;4995572;28;20026;-66
2021/08/31 02:10:42;;;;;;;61.25;30.08;;;;;;;-145.01;100.00;64805.59;4995280;28;20031;-64
2021/08/31 02:13:07;;;;;;;68.88;34.15;;;;;;;-145.01;100.00;64805.59;4994298;28;20028;-64
2021/08/31 02:15:33;;;;;;;64.80;32.97;;;;;;;-145.01;100.00;64805.59;4995343;28;20077;-64
2021/08/31 02:17:58;;;;;;;76.32;35.92;;;;;;;-145.01;100.00;64805.59;4995584;28;20037;-64
2021/08/31 02:20:24;;;;;;;88.20;37.08;;;;;;;-145.01;100.00;64805.59;4995067;28;20401;-64
2021/08/31 02:22:49;;;;;;;66.15;34.30;;;;;;;-145.01;100.00;64805.59;4995265;28;20397;-64
2021/08/31 02:25:14;;;;;;;65.13;32.65;;;;;;;-145.01;100.00;64805.59;4993851;28;20484;-64
2021/08/31 02:27:40;;;;;;;65.35;32.65;;;;;;;-145.01;100.00;64805.59;4995383;28;20366;-64
2021/08/31 02:30:06;;;;;;;60.92;31.63;;;;;;;-145.01;100.00;64805.59;4995053;28;20093;-64
2021/08/31 02:32:31;;;;;;;67.07;32.88;;;;;;;-145.01;100.00;64805.59;4993170;28;20023;-64
2021/08/31 02:34:57;;;;;;;66.82;33.83;;;;;;;-145.01;100.00;64805.59;4994970;28;20037;-64
2021/08/31 02:37:22;;;;;;;58.58;31.25;;;;;;;-145.01;100.00;64805.59;4994393;28;20047;-64
2021/08/31 02:39:47;;;;;;;61.28;32.70;;;;;;;-145.01;100.00;64805.59;4995281;28;20038;-64
2021/08/31 02:42:13;;;;;;;72.43;33.08;;;;;;;-145.01;100.00;64805.59;4994266;28;20042;-64
2021/08/31 02:44:38;;;;;;;62.70;32.38;;;;;;;-145.01;100.00;64805.59;4995220;28;20026;-64
2021/08/31 02:47:04;;;;;;;72.72;32.60;;;;;;;-145.01;100.00;64805.59;4993242;28;20097;-64
2021/08/31 02:49:29;;;;;;;68.63;34.30;;;;;;;-145.01;100.00;64805.59;4994837;28;20383;-64
2021/08/31 02:51:55;;;;;;;65.13;33.30;;;;;;;-145.01;100.00;64805.59;4994249;28;20034;-64
2021/08/31 02:54:20;;;;;;;67.38;32.53;;;;;;;-145.01;100.00;64805.59;4993805;28;20030;-64
2021/08/31 02:56:45;;;;;;;57.35;30.80;;;;;;;-145.01;100.00;64805.59;4994236;28;20034;-64
2021/08/31 02:59:11;;;;;;;63.08;31.42;;;;;;;-145.01;100.00;64805.59;4993436;28;20027;-64
2021/08/31 03:02:04;;;;;;;66.32;32.17;;;;;;;-145.01;100.00;64805.59;4993064;28;20046;-64
2021/08/31 03:04:25;;;;;;;68.18;34.28;;;;;;;-145.01;100.00;64805.59;4994522;28;20054;-64
2021/08/31 03:06:50;;;;;;;76.50;37.15;;;;;;;-145.01;100.00;64805.59;4994280;28;20380;-64
2021/08/31 03:09:16;;;;;;;74.43;34.90;;;;;;;-145.01;100.00;64805.59;4994312;28;20034;-64
2021/08/31 03:11:41;;;;;;;73.13;35.85;;;;;;;-145.01;100.00;64805.59;4994115;28;20038;-64
2021/08/31 03:14:07;;;;;;;79.28;35.60;;;;;;;-145.01;100.00;64805.59;4993230;28;20033;-64
2021/08/31 03:16:32;;;;;;;70.88;36.50;;;;;;;-145.01;100.00;64805.59;4992599;28;20030;-64
2021/08/31 03:18:58;;;;;;;77.05;36.40;;;;;;;-145.01;100.00;64805.59;4994551;28;20026;-64
2021/08/31 03:21:23;;;;;;;77.57;35.72;;;;;;;-145.01;100.00;64805.59;4993987;28;20054;-64
2021/08/31 03:23:48;;;;;;;70.00;35.10;;;;;;;-145.01;100.00;64805.59;4994582;28;20309;-64
2021/08/31 03:26:14;;;;;;;71.00;35.88;;;;;;;-145.01;100.00;64805.59;4994152;28;20038;-64
2021/08/31 03:28:39;;;;;;;70.43;35.28;;;;;;;-145.01;100.00;64805.59;4994338;28;20359;-64
2021/08/31 03:31:05;;;;;;;68.80;34.15;;;;;;;-145.01;100.00;64805.59;4992086;28;20049;-64
2021/08/31 03:33:30;;;;;;;65.20;33.30;;;;;;;-145.01;100.00;64805.59;4994188;28;20018;-64
2021/08/31 03:35:56;;;;;;;68.57;34.45;;;;;;;-145.01;100.00;64805.59;4992464;28;20084;-64
2021/08/31 03:38:21;;;;;;;75.57;35.90;;;;;;;-145.01;100.00;64805.59;4993616;28;20105;-65
2021/08/31 03:40:47;;;;;;;78.10;37.08;;;;;;;-145.01;100.00;64805.59;4993345;28;20489;-65
2021/08/31 03:43:13;;;;;;;92.15;37.75;;;;;;;-145.01;100.00;64805.59;4994388;28;20113;-64
2021/08/31 03:45:38;;;;;;;87.90;38.67;;;;;;;-145.01;100.00;64805.59;4992663;28;20038;-64
2021/08/31 03:48:04;;;;;;;85.93;37.67;;;;;;;-145.01;100.00;64805.59;4994381;28;20358;-64
2021/08/31 03:50:29;;;;;;;82.45;36.58;;;;;;;-145.01;100.00;64805.59;4992998;28;20035;-64
2021/08/31 03:52:55;;;;;;;80.20;37.97;;;;;;;-145.01;100.00;64805.59;4994203;28;20161;-64
2021/08/31 03:55:20;;;;;;;87.75;39.92;;;;;;;-145.01;100.00;64805.59;4993667;28;20050;-64
2021/08/31 03:57:46;;;;;;;84.60;38.83;;;;;;;-145.01;100.00;64805.59;4994006;28;20381;-64
2021/08/31 04:00:11;;;;;;;86.72;39.38;;;;;;;-145.01;100.00;64805.59;4993478;28;20018;-64
2021/08/31 04:02:38;;;;;;;85.30;37.13;;;;;;;-145.01;100.00;64805.59;4994204;28;20036;-64
2021/08/31 04:05:04;;;;;;;93.18;39.63;;;;;;;-145.01;100.00;64805.59;4976579;28;20092;-64
2021/08/31 04:07:30;;;;;;;90.57;40.88;;;;;;;-145.01;100.00;64805.59;4994144;28;20073;-65
2021/08/31 04:09:56;;;;;;;84.88;38.53;;;;;;;-145.01;100.00;64805.59;4994084;28;20038;-64
2021/08/31 04:12:21;;;;;;;81.03;38.55;;;;;;;-145.01;100.00;64805.59;4993775;28;20390;-66
2021/08/31 04:14:47;;;;;;;91.65;38.80;;;;;;;-145.01;100.00;64805.59;4994096;28;20030;-66
2021/08/31 04:17:13;;;;;;;83.47;38.75;;;;;;;-145.01;100.00;64805.59;4992318;28;20042;-64
2021/08/31 04:19:38;;;;;;;85.72;37.70;;;;;;;-145.01;100.00;64805.59;4960532;28;20026;-64
2021/08/31 04:22:04;;;;;;;84.55;38.53;;;;;;;-145.01;100.00;64805.59;4992135;28;20038;-64
2021/08/31 04:24:30;;;;;;;85.85;38.63;;;;;;;-145.01;100.00;64805.59;4976403;28;20030;-64
2021/08/31 04:26:55;;;;;;;87.20;37.55;;;;;;;-145.01;100.00;64805.59;4993253;28;20038;-64
2021/08/31 04:29:21;;;;;;;82.78;40.03;;;;;;;-145.01;100.00;64805.59;4993829;28;20033;-65
2021/08/31 04:31:46;;;;;;;83.97;38.17;;;;;;;-145.01;100.00;64805.59;4993308;28;20042;-64
2021/08/31 04:34:12;;;;;;;75.38;36.60;;;;;;;-145.01;100.00;64805.59;4992661;28;20532;-66
2021/08/31 04:36:37;;;;;;;89.03;38.03;;;;;;;-145.01;100.00;64805.59;4991695;28;20049;-66
2021/08/31 04:39:03;;;;;;;104.03;42.90;;;;;;;-145.01;100.00;64805.59;4976260;28;20507;-64
2021/08/31 04:41:28;;;;;;;91.40;38.05;;;;;;;-145.01;100.00;64805.59;4991767;28;20043;-64
2021/08/31 04:43:54;;;;;;;84.43;37.97;;;;;;;-145.01;100.00;64805.59;4993547;28;20027;-64
2021/08/31 04:46:19;;;;;;;86.65;38.47;;;;;;;-145.01;100.00;64805.59;4992954;28;20086;-64
2021/08/31 04:48:45;;;;;;;94.43;37.55;;;;;;;-145.01;100.00;64805.59;4993252;28;20125;-64
2021/08/31 04:51:10;;;;;;;85.30;40.40;;;;;;;-145.01;100.00;64805.59;4991648;28;20034;-64
2021/08/31 04:53:35;;;;;;;92.20;40.08;;;;;;;-145.01;100.00;64805.59;4975689;28;20377;-64
2021/08/31 04:56:01;;;;;;;87.47;39.40;;;;;;;-145.01;100.00;64805.59;4993365;28;20030;-63
2021/08/31 04:58:26;;;;;;;94.65;39.70;;;;;;;-145.01;100.00;64805.59;4997661;28;20488;-66
2021/08/31 05:00:52;;;;;;;98.90;40.65;;;;;;;-145.01;100.00;64805.59;4997083;28;20041;-64
2021/08/31 05:03:17;;;;;;;91.90;41.67;;;;;;;-145.01;100.00;64805.59;4997341;28;20519;-65
2021/08/31 05:05:43;;;;;;;94.05;42.30;;;;;;;-145.01;100.00;64805.59;4997203;28;20038;-64
2021/08/31 05:08:08;;;;;;;96.10;41.70;;;;;;;-145.01;100.00;64805.59;4997264;28;20433;-65
2021/08/31 05:10:34;;;;;;;92.70;39.35;;;;;;;-145.01;100.00;64805.59;4995463;28;20050;-64
2021/08/31 05:12:59;;;;;;;90.07;41.75;;;;;;;-145.01;100.00;64805.59;4997135;28;20429;-64
2021/08/31 05:15:25;;;;;;;94.35;42.65;;;;;;;-145.01;100.00;64805.59;4995444;28;20042;-64
2021/08/31 05:17:50;;;;;;;101.80;43.88;;;;;;;-145.01;100.00;64805.59;4996851;28;20034;-64
2021/08/31 05:20:16;;;;;;;95.22;44.60;;;;;;;-145.01;100.00;64805.59;4995616;28;20026;-64
2021/08/31 05:22:42;;;;;;;101.57;42.63;;;;;;;-145.01;100.00;64805.59;4979486;28;20096;-64
2021/08/31 05:25:07;;;;;;;95.82;44.28;;;;;;;-145.01;100.00;64805.59;4995362;28;20469;-64
2021/08/31 05:27:33;;;;;;;97.90;44.25;;;;;;;-145.01;100.00;64805.59;4997024;28;20030;-64
2021/08/31 05:29:58;;;;;;;103.10;45.63;;;;;;;-145.01;100.00;64805.59;4996876;28;20029;-64
2021/08/31 05:32:24;;;;;;;104.28;45.78;;;;;;;-145.01;100.00;64805.59;4996131;28;20034;-64
2021/08/31 05:34:49;;;;;;;103.68;44.60;;;;;;;-145.01;100.00;64805.59;4996940;28;20026;-64
2021/08/31 05:37:14;;;;;;;101.43;43.53;;;;;;;-145.01;100.00;64805.59;4996042;28;20038;-64
2021/08/31 05:39:40;;;;;;;115.10;48.22;;;;;;;-145.01;100.00;64805.59;4996540;28;20041;-64
2021/08/31 05:42:07;;;;;;;110.70;45.45;;;;;;;-145.01;100.00;64805.59;4996085;28;20031;-64
2021/08/31 05:44:33;;;;;;;106.40;45.90;;;;;;;-145.01;100.00;64805.59;4996635;28;20427;-64
2021/08/31 05:46:58;;;;;;;101.07;45.10;;;;;;;-145.01;100.00;64805.59;4994791;28;20039;-64
2021/08/31 05:49:26;;;;;;;107.65;46.35;;;;;;;-145.01;100.00;64805.59;4996586;28;20030;-64
2021/08/31 05:51:52;;;;;;;107.18;46.58;;;;;;;-145.01;100.00;64805.59;4996151;28;20093;-64
2021/08/31 05:54:17;;;;;;;113.43;45.40;;;;;;;-145.01;100.00;64805.59;4996344;28;20043;-64
2021/08/31 05:56:43;;;;;;;106.80;46.45;;;;;;;-145.01;100.00;64805.59;4995881;28;20039;-64
2021/08/31 05:59:08;;;;;;;105.13;46.60;;;;;;;-145.01;100.00;64805.59;4996374;28;20037;-64
2021/08/31 06:01:34;;;;;;;107.45;45.50;;;;;;;-145.01;100.00;64805.59;4995744;28;20098;-64
2021/08/31 06:03:59;;;;;;;97.43;46.05;;;;;;;-145.01;100.00;64805.59;4996159;28;20026;-64
2021/08/31 06:06:25;;;;;;;105.45;47.42;;;;;;;-145.01;100.00;64805.59;4995760;28;20042;-64
2021/08/31 06:08:50;;;;;;;109.10;45.72;;;;;;;-145.01;100.00;64805.59;4995877;28;20026;-64
2021/08/31 06:11:21;;;;;;;110.03;43.83;;;;;;;-145.01;100.00;64805.59;4995578;28;20046;-64
2021/08/31 06:13:46;;;;;;;96.32;43.72;;;;;;;-145.01;100.00;64805.59;4996126;28;20105;-64
2021/08/31 06:16:12;;;;;;;106.97;47.20;;;;;;;-145.01;100.00;64805.59;4995542;28;20058;-64
2021/08/31 06:18:37;;;;;;;112.45;47.47;;;;;;;-145.01;100.00;64805.59;4994950;28;20030;-64
2021/08/31 06:21:03;;;;;;;102.25;45.35;;;;;;;-145.01;100.00;64805.59;4995662;28;20046;-64
2021/08/31 06:23:28;;;;;;;104.35;46.70;;;;;;;-145.01;100.00;64805.59;4996075;28;20026;-64
2021/08/31 06:25:54;;;;;;;98.25;43.08;;;;;;;-145.01;100.00;64805.59;4995621;28;20061;-64
2021/08/31 06:28:19;;;;;;;94.75;42.58;;;;;;;-145.01;100.00;64805.59;4996120;28;20576;-64
2021/08/31 06:30:45;;;;;;;85.95;42.42;;;;;;;-145.01;100.00;64805.59;4995441;28;20038;-65
2021/08/31 06:33:10;;;;;;;94.82;44.13;;;;;;;-145.01;100.00;64805.59;4996019;28;20027;-64
2021/08/31 06:35:36;;;;;;;101.13;43.78;;;;;;;-145.01;100.00;64805.59;4995277;28;20031;-65
2021/08/31 06:38:01;;;;;;;88.40;42.40;;;;;;;-145.01;100.00;64805.59;4995598;28;20041;-65
2021/08/31 06:40:26;;;;;;;95.63;42.45;;;;;;;-145.01;100.00;64805.59;4995147;28;20038;-65
2021/08/31 06:42:52;;;;;;;92.22;41.75;;;;;;;-145.01;100.00;64805.59;4995925;28;20413;-65
2021/08/31 06:45:18;;;;;;;94.60;43.85;;;;;;;-145.01;100.00;64805.59;4993356;28;20493;-65
2021/08/31 06:47:43;;;;;;;99.65;41.47;;;;;;;-145.01;100.00;64805.59;4994230;28;20077;-65
2021/08/31 06:50:15;;;;;;;82.10;41.10;;;;;;;-145.01;100.00;64805.59;4994885;28;20026;-65
2021/08/31 06:52:41;;;;;;;80.70;39.35;;;;;;;-145.01;100.00;64805.59;4978324;28;20033;-65
2021/08/31 06:55:07;;;;;;;85.18;41.15;;;;;;;-145.01;100.00;64805.59;4995004;28;20142;-65
2021/08/31 06:57:33;;;;;;;75.00;38.47;;;;;;;-145.01;100.00;64805.59;4995118;28;20408;-65
2021/08/31 06:59:58;;;;;;;76.97;37.88;;;;;;;-145.01;100.00;64805.59;4993977;28;20026;-65
2021/08/31 07:02:24;;;;;;;85.20;40.47;;;;;;;-145.01;100.00;64805.59;4993514;28;20041;-65
2021/08/31 07:04:49;;;;;;;86.95;40.83;;;;;;;-145.01;100.00;64805.59;4995001;28;20049;-65
2021/08/31 07:07:15;;;;;;;78.30;38.95;;;;;;;-145.01;100.00;64805.59;4977411;28;20031;-65
2021/08/31 07:09:40;;;;;;;81.68;39.17;;;;;;;-145.01;100.00;64805.59;4994838;28;20042;-65
2021/08/31 07:12:06;;;;;;;76.72;40.03;;;;;;;-145.01;100.00;64805.59;4994484;28;20034;-65
2021/08/31 07:14:32;;;;;;;87.72;39.60;;;;;;;-145.01;100.00;64805.59;4994915;28;20026;-64
2021/08/31 07:16:57;;;;;;;75.95;38.92;;;;;;;-145.01;100.00;64805.59;4994425;28;20034;-64
2021/08/31 07:19:22;;;;;;;78.97;40.90;;;;;;;-145.01;100.00;64805.59;4994223;28;20038;-64
2021/08/31 07:21:48;;;;;;;74.85;38.50;;;;;;;-145.01;100.00;64805.59;4994344;28;20034;-64
2021/08/31 07:24:13;;;;;;;84.43;38.97;;;;;;;-145.01;100.00;64805.59;4994609;28;20023;-64
2021/08/31 07:26:39;;;;;;;78.05;37.53;;;;;;;-145.01;100.00;64805.59;4976804;28;20049;-64
2021/08/31 07:29:04;;;;;;;69.95;37.20;;;;;;;-145.01;100.00;64805.59;4994524;28;20112;-64
2021/08/31 07:31:30;;;;;;;70.50;35.42;;;;;;;-145.01;100.00;64805.59;4994088;28;20042;-65
2021/08/31 07:33:55;;;;;;;77.72;36.80;;;;;;;-145.01;100.00;64805.59;4994698;28;20014;-64
2021/08/31 07:36:21;;;;;;;77.28;37.55;;;;;;;-145.01;100.00;64805.59;4994088;28;20030;-64
2021/08/31 07:38:47;;;;;;;70.15;36.70;;;;;;;-145.01;100.00;64805.59;4994491;28;20061;-64
2021/08/31 07:41:12;;;;;;;78.78;36.15;;;;;;;-145.01;100.00;64805.59;4993986;28;20050;-64
2021/08/31 07:43:38;;;;;;;73.57;34.85;;;;;;;-145.01;100.00;64805.59;4994222;28;20026;-64
2021/08/31 07:46:03;;;;;;;63.25;33.83;;;;;;;-145.01;100.00;64805.59;4993931;28;20110;-65
2021/08/31 07:48:29;;;;;;;66.38;33.45;;;;;;;-145.01;100.00;64805.59;4994307;28;20034;-65
2021/08/31 07:50:54;;;;;;;64.43;33.90;;;;;;;-145.01;100.00;64805.59;4992512;28;20038;-64
2021/08/31 07:53:19;;;;;;;69.63;32.25;;;;;;;-145.01;100.00;64805.59;4994239;28;20026;-64
2021/08/31 07:55:45;;;;;;;61.20;32.70;;;;;;;-145.01;100.00;64805.59;4993861;28;20038;-66
2021/08/31 07:58:10;;;;;;;63.38;31.90;;;;;;;-145.01;100.00;64805.59;4994087;28;20386;-64
2021/08/31 08:00:39;;;;;;;67.53;31.10;;;;;;;-145.01;100.00;64805.59;4993780;28;20034;-65
2021/08/31 08:03:04;;;;;;;54.35;30.83;;;;;;;-145.01;100.00;64805.59;4994243;28;20022;-65
2021/08/31 08:05:30;;;;;;;60.63;31.20;;;;;;;-145.01;100.00;64805.59;4993779;28;20030;-64
2021/08/31 08:07:55;;;;;;;53.60;28.45;;;;;;;-145.01;100.00;64805.59;4994145;28;20536;-65
2021/08/31 08:10:21;;;;;;;58.42;29.85;;;;;;;-145.01;100.00;64805.59;4993411;28;20377;-64
2021/08/31 08:12:46;;;;;;;63.55;29.95;;;;;;;-145.01;100.00;64805.59;4993921;28;20397;-64
2021/08/31 08:15:12;;;;;;;51.10;26.30;;;;;;;-145.01;100.00;64805.59;4993601;28;20488;-65
2021/08/31 08:17:37;;;;;;;52.30;28.45;;;;;;;-145.01;100.00;64805.59;4993764;28;20031;-64
2021/08/31 08:20:03;;;;;;;58.05;28.98;;;;;;;-145.01;100.00;64805.59;4993500;28;20038;-64
2021/08/31 08:22:29;;;;;;;55.90;28.52;;;;;;;-145.01;100.00;64805.59;4994001;28;20026;-65
2021/08/31 08:24:55;;;;;;;56.50;28.67;;;;;;;-145.01;100.00;64805.59;4993895;28;20027;-65
2021/08/31 08:27:20;;;;;;;50.80;28.17;;;;;;;-145.01;100.00;64805.59;4993229;28;20046;-64
2021/08/31 08:29:46;;;;;;;49.70;28.20;;;;;;;-145.01;100.00;64805.59;4993795;28;20359;-64
2021/08/31 08:32:11;;;;;;;52.03;28.85;;;;;;;-145.01;100.00;64805.59;4992339;28;20401;-65
2021/08/31 08:34:37;;;;;;;56.53;29.23;;;;;;;-145.01;100.00;64805.59;4993792;28;20069;-65
2021/08/31 08:37:03;;;;;;;53.10;27.27;;;;;;;-145.01;100.00;64805.59;4992037;28;20038;-65
2021/08/31 08:39:30;;;;;;;53.78;27.85;;;;;;;-145.01;100.00;64805.59;4993646;28;20023;-65
2021/08/31 08:41:56;;;;;;;58.72;28.65;;;;;;;-145.01;100.00;64805.59;4991736;28;20058;-65
2021/08/31 08:44:21;;;;;;;55.38;29.00;;;;;;;-145.01;100.00;64805.59;4993409;28;20046;-64
2021/08/31 08:46:47;;;;;;;57.63;29.35;;;;;;;-145.01;100.00;64805.59;4993078;28;20092;-64
2021/08/31 08:49:13;;;;;;;49.95;27.02;;;;;;;-145.01;100.00;64805.59;4993413;28;20496;-65
2021/08/31 08:51:39;;;;;;;45.80;24.67;;;;;;;-145.01;100.00;64805.59;4993028;28;20460;-65
2021/08/31 08:54:06;;;;;;;43.60;25.92;;;;;;;-145.01;100.00;64805.59;4992218;28;20019;-65
2021/08/31 08:56:32;;;;;;;43.17;24.67;;;;;;;-145.01;100.00;64805.59;4992478;28;20030;-65
2021/08/31 08:58:57;;;;;;;48.55;27.15;;;;;;;-145.01;100.00;64805.59;4993438;28;20033;-65
2021/08/31 09:01:23;;;;;;;50.25;26.95;;;;;;;-145.01;100.00;64805.59;4991800;28;20034;-65
2021/08/31 09:03:53;;;;;;;47.45;27.60;;;;;;;-145.01;100.00;64805.59;4992218;28;20030;-65
2021/08/31 09:06:20;;;;;;;45.67;26.20;;;;;;;-145.01;100.00;64805.59;4993055;28;20121;-65
2021/08/31 09:08:58;;;;;;;47.42;25.65;;;;;;;-145.01;100.00;64805.59;4993314;28;20019;-65
2021/08/31 09:11:26;;;;;;;49.38;26.00;;;;;;;-145.01;100.00;64805.59;4991713;28;20524;-66
2021/08/31 09:13:52;;;;;;;50.40;24.55;;;;;;;-145.01;100.00;64805.59;4993181;28;20500;-65
2021/08/31 09:16:21;;;;;;;45.60;27.52;;;;;;;-145.01;100.00;64805.59;4993155;28;20066;-66
2021/08/31 09:18:51;;;;;;;56.55;26.33;;;;;;;-145.01;100.00;64805.59;4993464;28;20073;-66
2021/08/31 09:21:20;;;;;;;46.47;26.13;;;;;;;-145.01;100.00;64805.59;4991580;28;20054;-66
2021/08/31 09:23:46;;;;;;;40.60;24.65;;;;;;;-145.01;100.00;64805.59;4993284;28;20042;-66
2021/08/31 09:26:18;;;;;;;46.92;24.23;;;;;;;-145.01;100.00;64805.59;4975242;28;20031;-66
2021/08/31 09:28:43;;;;;;;45.13;24.70;;;;;;;-145.01;100.00;64805.59;4993260;28;20052;-66
2021/08/31 09:31:19;;;;;;;47.83;23.77;;;;;;;-145.01;100.00;64805.59;4992705;28;20420;-66
2021/08/31 09:33:56;;;;;;;40.50;24.15;;;;;;;-145.01;100.00;64805.59;4992942;28;20026;-66
2021/08/31 09:36:22;;;;;;;43.50;24.10;;;;;;;-145.01;100.00;64805.59;4992506;28;20042;-66
2021/08/31 09:38:57;;;;;;;35.33;22.80;;;;;;;-145.01;100.00;64805.59;4991828;28;20492;-66
2021/08/31 09:41:25;;;;;;;42.17;24.15;;;;;;;-145.01;100.00;64805.59;4992621;28;20114;-66
2021/08/31 09:43:50;;;;;;;42.78;24.60;;;;;;;-145.01;100.00;64805.59;4995896;28;20026;-66
2021/08/31 09:46:16;;;;;;;40.17;24.55;;;;;;;-145.01;100.00;64805.59;4996414;28;20043;-64
2021/08/31 09:48:41;;;;;;;46.08;25.58;;;;;;;-145.01;100.00;64805.59;4989260;28;20018;-65
2021/08/31 09:51:07;;;;;;;45.72;25.85;;;;;;;-145.01;100.00;64805.59;4991367;28;20042;-64
2021/08/31 09:53:32;;;;;;;48.50;26.05;;;;;;;-145.01;100.00;64805.59;4965121;28;20023;-64
2021/08/31 09:56:01;;;;;;;46.22;25.25;;;;;;;-145.01;100.00;64805.59;4990022;28;20046;-64
2021/08/31 09:58:26;;;;;;;43.25;24.13;;;;;;;-145.01;100.00;64805.59;4989618;28;20034;-64
2021/08/31 10:00:54;;;;;;;42.42;25.45;;;;;;;-145.01;100.00;64805.59;4983192;28;20043;-65
2021/08/31 10:03:21;;;;;;;48.55;25.75;;;;;;;-145.01;100.00;64805.59;4986154;28;20134;-65
2021/08/31 10:05:48;;;;;;;47.90;25.13;;;;;;;-145.01;100.00;64805.59;4986941;28;20046;-65
2021/08/31 10:08:14;;;;;;;43.33;24.50;;;;;;;-145.01;100.00;64805.59;4995108;28;20030;-65
2021/08/31 10:10:41;;;;;;;44.05;24.20;;;;;;;-145.01;100.00;64805.59;4995024;28;20122;-64
2021/08/31 10:13:11;;;;;;;47.22;25.23;;;;;;;-145.01;100.00;64805.59;4993336;28;20030;-65
2021/08/31 10:15:40;;;;;;;46.85;25.27;;;;;;;-145.01;100.00;64805.59;4984166;28;20037;-65
2021/08/31 10:18:07;;;;;;;50.03;27.65;;;;;;;-145.01;100.00;64805.59;4988773;28;20031;-64
2021/08/31 10:20:34;;;;;;;49.95;26.60;;;;;;;-145.01;100.00;64805.59;4990860;28;20061;-65
2021/08/31 10:22:59;;;;;;;49.58;25.58;;;;;;;-145.01;100.00;64805.59;4994651;28;20351;-65
2021/08/31 10:25:26;;;;;;;45.40;27.33;;;;;;;-145.01;100.00;64805.59;4983733;28;20069;-65
2021/08/31 10:27:52;;;;;;;47.70;25.45;;;;;;;-145.01;100.00;64805.59;4970623;28;20026;-65
2021/08/31 10:30:18;;;;;;;48.95;27.55;;;;;;;-145.01;100.00;64805.59;4982378;28;20385;-65
2021/08/31 10:32:44;;;;;;;48.08;26.27;;;;;;;-145.01;100.00;64805.59;4989670;28;20026;-64
2021/08/31 10:35:39;;;;;;;52.85;28.30;;;;;;;-145.01;100.00;64805.59;4986160;28;20022;-64
2021/08/31 10:38:09;;;;;;;60.83;30.45;;;;;;;-145.01;100.00;64805.59;4994119;28;20043;-65
2021/08/31 10:40:36;;;;;;;61.30;30.77;;;;;;;-145.01;100.00;64805.59;4984529;28;20066;-66
2021/08/31 10:43:03;;;;;;;57.55;30.20;;;;;;;-145.01;100.00;64805.59;4977229;28;20062;-64
2021/08/31 10:45:32;;;;;;;52.38;28.20;;;;;;;-145.01;100.00;64805.59;4979709;28;20493;-64
2021/08/31 10:47:58;;;;;;;51.72;27.83;;;;;;;-145.01;100.00;64805.59;4992668;28;20106;-64
2021/08/31 10:50:30;;;;;;;52.70;27.13;;;;;;;-145.01;100.00;64805.59;4990441;28;20503;-64